Terminal Aerodrome Forecast
Issued by NWS

Home | Current Version | Previous Version | Text Only | Print | Product List | Glossary On
Versions: 1 2 3 4 5 6 7 8 9 10 11 12 13 14 15
000
FTUS44 KBMX 031720
TAFTOI
TAF
KTOI 031720Z 0318/0418 32005KT P6SM SCT040 BKN250
     FM040800 00000KT 5SM BR SCT040 BKN250
     FM041400 VRB03KT P6SM SCT250=

USA.gov is the U.S. government's official web portal to all federal, state and local government web resources and services.